Time;durP1;ratioP1;P1;durP2;ratioP2;P2;SDS_P1;SDS_P2;PMS_P1;PMS_P2;Temp;Humidity;BMP_temperature;BMP_pressure;BME280_temperature;BME280_humidity;BME280_pressure;Samples;Min_cycle;Max_cycle;Signal;HPM_P1;HPM_P2
2021/11/23 00:00:31;;;;;;;0.40;0.40;;;1.90;99.90;;;;;;4433333;32;20077;-71
2021/11/23 00:02:56;;;;;;;0.77;0.70;;;1.90;99.90;;;;;;4438492;32;20392;-71
2021/11/23 00:05:22;;;;;;;0.50;0.50;;;1.80;99.90;;;;;;4436087;32;20081;-71
2021/11/23 00:07:47;;;;;;;0.73;0.73;;;1.90;99.90;;;;;;4426392;32;20062;-71
2021/11/23 00:10:13;;;;;;;0.50;0.50;;;1.90;99.90;;;;;;4430771;32;20069;-71
2021/11/23 00:12:38;;;;;;;0.50;0.50;;;1.90;99.90;;;;;;4435904;32;20086;-71
2021/11/23 00:15:05;;;;;;;0.50;0.50;;;1.90;99.90;;;;;;4433114;32;20085;-71
2021/11/23 00:17:30;;;;;;;0.40;0.40;;;2.00;99.90;;;;;;4429662;32;20448;-71
2021/11/23 00:19:56;;;;;;;0.30;0.30;;;2.00;99.90;;;;;;4430758;32;20135;-71
2021/11/23 00:22:23;;;;;;;0.35;0.35;;;2.10;99.90;;;;;;4430702;32;20072;-72
2021/11/23 00:24:48;;;;;;;0.47;0.47;;;2.10;99.90;;;;;;4430587;32;20483;-72
2021/11/23 00:27:14;;;;;;;0.57;0.57;;;2.00;99.90;;;;;;4442028;32;20111;-72
2021/11/23 00:29:40;;;;;;;0.50;0.50;;;2.00;99.90;;;;;;4433548;32;20081;-72
2021/11/23 00:32:05;;;;;;;0.45;0.45;;;1.90;99.90;;;;;;4429805;32;20132;-71
2021/11/23 00:34:31;;;;;;;0.95;0.93;;;1.80;99.90;;;;;;4429098;32;20649;-71
2021/11/23 00:36:58;;;;;;;0.50;0.50;;;1.70;99.90;;;;;;4427254;32;20184;-71
2021/11/23 00:39:24;;;;;;;3.85;1.00;;;1.70;99.90;;;;;;4429658;32;20131;-71
2021/11/23 00:41:50;;;;;;;0.35;0.35;;;1.80;99.90;;;;;;4430600;32;20062;-71
2021/11/23 00:44:17;;;;;;;2.65;0.88;;;1.90;99.90;;;;;;4433997;32;20069;-71
2021/11/23 00:46:44;;;;;;;0.40;0.40;;;1.80;99.90;;;;;;4430042;32;20401;-71
2021/11/23 00:49:11;;;;;;;0.30;0.30;;;1.70;99.90;;;;;;4437041;32;20424;-71
2021/11/23 00:51:37;;;;;;;1.05;1.05;;;1.70;99.90;;;;;;4433227;32;20094;-71
2021/11/23 00:54:02;;;;;;;0.60;0.60;;;1.70;99.90;;;;;;4434436;32;20065;-71
2021/11/23 00:56:28;;;;;;;0.45;0.45;;;1.70;99.90;;;;;;4433739;32;20142;-71
2021/11/23 00:58:53;;;;;;;0.40;0.40;;;1.70;99.90;;;;;;4432720;32;20112;-71
2021/11/23 01:01:19;;;;;;;10.65;1.95;;;1.60;99.90;;;;;;4437873;32;20117;-71
2021/11/23 01:03:44;;;;;;;0.40;0.40;;;1.70;99.90;;;;;;4432216;32;20443;-72
2021/11/23 01:06:10;;;;;;;0.50;0.50;;;1.90;99.90;;;;;;4431681;32;20395;-72
2021/11/23 01:08:39;;;;;;;0.60;0.60;;;1.90;99.90;;;;;;4433063;32;20131;-72
2021/11/23 01:11:07;;;;;;;0.47;0.47;;;2.00;99.90;;;;;;4432480;32;20073;-72
2021/11/23 01:13:33;;;;;;;0.70;0.70;;;1.90;99.90;;;;;;4436334;32;20085;-71
2021/11/23 01:16:00;;;;;;;0.47;0.47;;;1.80;99.90;;;;;;4431201;32;20068;-72
2021/11/23 01:18:26;;;;;;;0.60;0.60;;;1.80;99.90;;;;;;4437670;32;20065;-72
2021/11/23 01:20:52;;;;;;;0.40;0.40;;;1.80;99.90;;;;;;4432800;32;20159;-72
2021/11/23 01:23:18;;;;;;;0.50;0.50;;;1.80;99.90;;;;;;4430824;32;20065;-71
2021/11/23 01:25:43;;;;;;;0.40;0.40;;;1.80;99.90;;;;;;4430668;32;20469;-71
2021/11/23 01:28:09;;;;;;;0.30;0.30;;;1.60;99.90;;;;;;4433653;32;20065;-71
2021/11/23 01:30:35;;;;;;;0.40;0.40;;;1.60;99.90;;;;;;4433812;32;20093;-71
2021/11/23 01:33:00;;;;;;;0.70;0.70;;;1.70;99.90;;;;;;4431812;32;20080;-71
2021/11/23 01:35:26;;;;;;;1.27;0.60;;;1.90;99.90;;;;;;4429147;32;20056;-71
2021/11/23 01:37:52;;;;;;;0.65;0.50;;;2.00;99.90;;;;;;4430210;32;20517;-72
2021/11/23 01:40:18;;;;;;;0.60;0.60;;;1.90;99.90;;;;;;4430914;32;20065;-71
2021/11/23 01:42:45;;;;;;;0.40;0.40;;;1.90;99.90;;;;;;4430904;32;20073;-71
2021/11/23 01:45:11;;;;;;;0.40;0.40;;;1.80;99.90;;;;;;4433661;32;20511;-71
2021/11/23 01:47:37;;;;;;;0.40;0.40;;;1.70;99.90;;;;;;4428618;32;20069;-70
2021/11/23 01:50:05;;;;;;;0.60;0.60;;;1.80;99.90;;;;;;4431103;32;20069;-72
2021/11/23 01:52:31;;;;;;;0.30;0.30;;;1.90;99.90;;;;;;4431244;32;20081;-72
2021/11/23 01:54:57;;;;;;;1.75;0.70;;;1.90;99.90;;;;;;4428661;32;20080;-71
2021/11/23 01:57:22;;;;;;;0.60;0.60;;;2.00;99.90;;;;;;4429833;32;20463;-71
2021/11/23 01:59:48;;;;;;;0.45;0.45;;;2.00;99.90;;;;;;4429053;32;20077;-71
2021/11/23 02:02:14;;;;;;;0.68;0.68;;;2.00;99.90;;;;;;4435255;32;20072;-71
2021/11/23 02:04:40;;;;;;;0.60;0.60;;;2.00;99.90;;;;;;4428890;32;20586;-71
2021/11/23 02:07:06;;;;;;;0.65;0.65;;;2.00;99.90;;;;;;4430519;32;20069;-71
2021/11/23 02:09:32;;;;;;;27.13;3.15;;;2.00;99.90;;;;;;4429616;32;20085;-72
2021/11/23 02:12:00;;;;;;;0.82;0.82;;;2.00;99.90;;;;;;4432501;32;20185;-71
2021/11/23 02:14:28;;;;;;;0.62;0.62;;;1.90;99.90;;;;;;4429043;32;20053;-71
2021/11/23 02:16:54;;;;;;;0.43;0.43;;;2.00;99.90;;;;;;4431300;32;20077;-72
2021/11/23 02:19:20;;;;;;;0.30;0.30;;;2.10;99.90;;;;;;4431567;32;20085;-71
2021/11/23 02:21:45;;;;;;;0.57;0.50;;;2.20;99.90;;;;;;4428003;32;20089;-71
2021/11/23 02:24:11;;;;;;;1.02;0.98;;;2.20;99.90;;;;;;4428622;32;20142;-71
2021/11/23 02:26:36;;;;;;;1.37;1.27;;;2.20;99.90;;;;;;4431839;32;20062;-72
2021/11/23 02:29:02;;;;;;;0.77;0.77;;;2.30;99.90;;;;;;4430265;32;20065;-71
2021/11/23 02:31:28;;;;;;;0.40;0.40;;;2.10;99.90;;;;;;4431753;32;20092;-71
2021/11/23 02:33:53;;;;;;;0.88;0.77;;;1.90;99.90;;;;;;4432497;32;20155;-71
2021/11/23 02:36:19;;;;;;;0.40;0.40;;;2.00;99.90;;;;;;4431829;32;20073;-71
2021/11/23 02:38:46;;;;;;;2.87;0.95;;;2.00;99.90;;;;;;4427722;32;20275;-71
2021/11/23 02:41:13;;;;;;;0.47;0.47;;;1.90;99.90;;;;;;4434272;32;20101;-71
2021/11/23 02:43:39;;;;;;;0.30;0.30;;;1.80;99.90;;;;;;4429081;32;20061;-71
2021/11/23 02:46:06;;;;;;;0.40;0.40;;;1.90;99.90;;;;;;4433488;32;20432;-71
2021/11/23 02:48:32;;;;;;;0.30;0.30;;;1.80;99.90;;;;;;4431235;32;20142;-71
2021/11/23 02:51:10;;;;;;;0.70;0.70;;;1.70;99.90;;;;;;4440319;32;20580;-71
2021/11/23 02:53:36;;;;;;;0.47;0.47;;;1.70;99.90;;;;;;4427168;32;20102;-71
2021/11/23 02:56:02;;;;;;;0.77;0.77;;;1.70;99.90;;;;;;4430698;32;20507;-71
2021/11/23 02:58:29;;;;;;;0.45;0.45;;;1.80;99.90;;;;;;4427784;32;20531;-71
2021/11/23 03:00:58;;;;;;;0.40;0.40;;;2.00;99.90;;;;;;4429709;32;20086;-71
2021/11/23 03:03:24;;;;;;;0.40;0.40;;;2.00;99.90;;;;;;4432426;32;20065;-71
2021/11/23 03:05:52;;;;;;;0.75;0.75;;;2.00;99.90;;;;;;4429481;32;20124;-71
2021/11/23 03:08:18;;;;;;;0.43;0.43;;;1.80;99.90;;;;;;4428367;32;20053;-71
2021/11/23 03:10:44;;;;;;;0.68;0.68;;;1.80;99.90;;;;;;4429471;32;20104;-71
2021/11/23 03:13:09;;;;;;;0.50;0.50;;;1.80;99.90;;;;;;4431532;32;20060;-71
2021/11/23 03:15:35;;;;;;;0.77;0.77;;;1.90;99.90;;;;;;4428943;32;20112;-71
2021/11/23 03:18:00;;;;;;;0.40;0.40;;;1.80;99.90;;;;;;4432605;32;20065;-71
2021/11/23 03:20:27;;;;;;;0.45;0.45;;;1.90;99.90;;;;;;4430808;32;21285;-71
2021/11/23 03:22:54;;;;;;;0.57;0.45;;;2.00;99.90;;;;;;4428149;32;20078;-71
2021/11/23 03:25:20;;;;;;;1.27;0.95;;;2.10;99.90;;;;;;4429085;32;20124;-71
2021/11/23 03:27:45;;;;;;;0.75;0.73;;;2.10;99.90;;;;;;4429713;32;20073;-71
2021/11/23 03:30:14;;;;;;;0.40;0.40;;;2.20;99.90;;;;;;4432412;32;21314;-71
2021/11/23 03:32:40;;;;;;;0.50;0.50;;;2.30;99.90;;;;;;4439518;32;20087;-71
2021/11/23 03:35:07;;;;;;;1.37;1.00;;;2.20;99.90;;;;;;4427669;32;20074;-71
2021/11/23 03:37:32;;;;;;;0.40;0.40;;;2.20;99.90;;;;;;4430595;32;20416;-71
2021/11/23 03:39:58;;;;;;;0.50;0.50;;;2.30;99.90;;;;;;4430262;32;20069;-71
2021/11/23 03:42:24;;;;;;;0.65;0.65;;;2.40;99.90;;;;;;4428885;32;20155;-71
2021/11/23 03:44:49;;;;;;;0.35;0.35;;;2.40;99.90;;;;;;4429842;32;20062;-71
2021/11/23 03:47:17;;;;;;;0.68;0.68;;;2.40;99.90;;;;;;4434843;32;20132;-71
2021/11/23 03:49:46;;;;;;;0.40;0.40;;;2.40;99.90;;;;;;4435201;32;20062;-71
2021/11/23 03:52:13;;;;;;;0.85;0.77;;;2.50;99.90;;;;;;4433313;32;20061;-71
2021/11/23 03:54:39;;;;;;;0.50;0.50;;;2.50;99.90;;;;;;4430499;32;20069;-71
2021/11/23 03:57:05;;;;;;;0.55;0.47;;;2.60;99.90;;;;;;4432414;32;20101;-71
2021/11/23 03:59:31;;;;;;;0.50;0.50;;;2.50;99.90;;;;;;4430087;32;20068;-71
2021/11/23 04:01:56;;;;;;;0.45;0.45;;;2.50;99.90;;;;;;4423740;32;20108;-72
2021/11/23 04:04:22;;;;;;;0.40;0.40;;;2.60;99.90;;;;;;4428058;32;20086;-72
2021/11/23 04:06:48;;;;;;;0.50;0.50;;;2.60;99.90;;;;;;4428822;32;20126;-72
2021/11/23 04:09:13;;;;;;;0.40;0.40;;;2.70;99.90;;;;;;4432413;32;20065;-72
2021/11/23 04:11:38;;;;;;;1.20;1.10;;;2.60;99.90;;;;;;4430246;32;20072;-71
2021/11/23 04:14:04;;;;;;;0.75;0.75;;;2.70;99.90;;;;;;4434236;32;20131;-71
2021/11/23 04:16:29;;;;;;;0.30;0.30;;;2.60;99.90;;;;;;4428936;32;20078;-71
2021/11/23 04:18:55;;;;;;;2.15;1.27;;;2.70;99.90;;;;;;4436226;32;20539;-71
2021/11/23 04:21:21;;;;;;;0.47;0.47;;;2.70;99.90;;;;;;4435211;32;20057;-71
2021/11/23 04:23:48;;;;;;;0.70;0.70;;;2.70;99.90;;;;;;4430003;32;20088;-71
2021/11/23 04:26:13;;;;;;;0.40;0.40;;;2.80;99.90;;;;;;4428654;32;20125;-71
2021/11/23 04:28:39;;;;;;;0.90;0.90;;;2.80;99.90;;;;;;4427822;32;20086;-71
2021/11/23 04:31:05;;;;;;;0.35;0.35;;;2.90;99.90;;;;;;4429238;32;20077;-71
2021/11/23 04:33:30;;;;;;;0.50;0.50;;;3.00;99.90;;;;;;4428104;32;89662;-72
2021/11/23 04:35:56;;;;;;;2.10;0.98;;;3.00;99.90;;;;;;4430939;32;20159;-71
2021/11/23 04:38:22;;;;;;;0.50;0.50;;;3.00;99.90;;;;;;4428196;32;20078;-71
2021/11/23 04:40:48;;;;;;;0.80;0.80;;;3.00;99.90;;;;;;4431328;32;20064;-71
2021/11/23 04:43:13;;;;;;;0.55;0.55;;;3.10;99.90;;;;;;4431863;32;20062;-71
2021/11/23 04:45:39;;;;;;;0.40;0.40;;;3.10;99.90;;;;;;4426869;32;20078;-71
2021/11/23 04:48:06;;;;;;;0.40;0.40;;;3.20;99.90;;;;;;4433295;32;20112;-71
2021/11/23 04:50:33;;;;;;;0.47;0.47;;;3.20;99.90;;;;;;4426701;32;20327;-71
2021/11/23 04:52:58;;;;;;;13.68;1.50;;;3.20;99.90;;;;;;4436539;32;20124;-71
2021/11/23 04:55:24;;;;;;;0.50;0.50;;;3.20;99.90;;;;;;4430889;32;20065;-71
2021/11/23 04:57:50;;;;;;;0.60;0.60;;;3.20;99.90;;;;;;4432633;32;20060;-71
2021/11/23 05:00:17;;;;;;;0.40;0.40;;;3.30;99.90;;;;;;4429762;32;20065;-71
2021/11/23 05:02:44;;;;;;;1.52;1.20;;;3.30;99.90;;;;;;4430967;32;20073;-71
2021/11/23 05:05:10;;;;;;;0.65;0.65;;;3.20;99.90;;;;;;4430053;32;20053;-71
2021/11/23 05:07:37;;;;;;;2.40;0.65;;;3.30;99.90;;;;;;4429024;32;20103;-71
2021/11/23 05:10:05;;;;;;;0.82;0.82;;;3.30;99.90;;;;;;4425130;32;20065;-71
2021/11/23 05:12:31;;;;;;;0.30;0.30;;;3.30;99.90;;;;;;4430679;32;20077;-71
2021/11/23 05:14:56;;;;;;;0.30;0.30;;;3.40;99.90;;;;;;4435921;32;20065;-71
2021/11/23 05:17:22;;;;;;;0.37;0.37;;;3.40;99.90;;;;;;4431541;32;20795;-71
2021/11/23 05:19:47;;;;;;;0.60;0.60;;;3.50;99.90;;;;;;4433475;32;20139;-71
2021/11/23 05:22:13;;;;;;;0.50;0.50;;;3.50;99.90;;;;;;4419229;32;20073;-71
2021/11/23 05:24:39;;;;;;;0.40;0.40;;;3.60;99.90;;;;;;4423905;32;20152;-70
2021/11/23 05:27:07;;;;;;;0.62;0.62;;;3.60;99.90;;;;;;4429690;32;20089;-70
2021/11/23 05:29:33;;;;;;;0.40;0.40;;;3.60;99.90;;;;;;4428170;32;20072;-71
2021/11/23 05:31:58;;;;;;;1.08;0.80;;;3.60;99.90;;;;;;4428032;32;20094;-71
2021/11/23 05:34:24;;;;;;;0.70;0.70;;;3.70;99.90;;;;;;4427061;32;20065;-71
2021/11/23 05:36:49;;;;;;;0.90;0.70;;;3.70;99.90;;;;;;4429568;32;20124;-71
2021/11/23 05:39:15;;;;;;;2.37;0.70;;;3.80;99.90;;;;;;4430596;32;20061;-71
2021/11/23 05:41:41;;;;;;;1.60;1.50;;;3.80;99.90;;;;;;4429211;32;20116;-71
2021/11/23 05:44:07;;;;;;;7.32;1.10;;;3.90;99.90;;;;;;4440719;32;20089;-71
2021/11/23 05:46:33;;;;;;;0.68;0.68;;;4.00;99.90;;;;;;4431024;32;20065;-71
2021/11/23 05:48:58;;;;;;;1.95;1.42;;;4.10;99.90;;;;;;4434553;32;20077;-71
2021/11/23 05:51:24;;;;;;;0.60;0.60;;;4.20;99.90;;;;;;4430721;32;20124;-71
2021/11/23 05:53:50;;;;;;;0.82;0.60;;;4.20;99.90;;;;;;4437977;32;20065;-71
2021/11/23 05:56:15;;;;;;;0.65;0.65;;;4.30;99.90;;;;;;4428825;32;20081;-71
2021/11/23 05:58:41;;;;;;;0.70;0.70;;;4.40;99.90;;;;;;4429281;32;20141;-71
2021/11/23 06:01:07;;;;;;;0.43;0.43;;;4.40;99.90;;;;;;4422085;32;20066;-72
2021/11/23 06:03:33;;;;;;;0.57;0.57;;;4.50;99.90;;;;;;4417043;32;20093;-71
2021/11/23 06:05:58;;;;;;;0.85;0.85;;;4.50;99.90;;;;;;4424373;32;20101;-71
2021/11/23 06:08:24;;;;;;;0.40;0.40;;;4.50;99.90;;;;;;4428715;32;20510;-71
2021/11/23 06:10:49;;;;;;;0.40;0.40;;;4.60;99.90;;;;;;4430267;32;20151;-71
2021/11/23 06:13:15;;;;;;;0.40;0.40;;;4.60;99.90;;;;;;4431394;32;20421;-71
2021/11/23 06:15:42;;;;;;;0.90;0.88;;;4.60;99.90;;;;;;4427463;32;20086;-71
2021/11/23 06:18:10;;;;;;;0.80;0.80;;;4.60;99.90;;;;;;4411930;32;20072;-71
2021/11/23 06:20:36;;;;;;;0.50;0.50;;;4.60;99.90;;;;;;4424557;32;20069;-71
2021/11/23 06:23:03;;;;;;;0.40;0.40;;;4.60;99.90;;;;;;4432229;32;20086;-71
2021/11/23 06:25:30;;;;;;;0.60;0.60;;;4.60;99.90;;;;;;4427151;32;20089;-71
2021/11/23 06:27:56;;;;;;;0.70;0.70;;;4.60;99.90;;;;;;4414374;32;20161;-71
2021/11/23 06:30:24;;;;;;;5.18;1.75;;;4.60;99.90;;;;;;4411909;32;20560;-71
2021/11/23 06:32:50;;;;;;;0.62;0.62;;;4.60;99.90;;;;;;4406230;32;20272;-71
2021/11/23 06:35:17;;;;;;;0.95;0.60;;;4.70;99.90;;;;;;4415557;32;20090;-71
2021/11/23 06:37:42;;;;;;;0.60;0.60;;;4.70;99.90;;;;;;4418908;32;20096;-71
2021/11/23 06:40:10;;;;;;;3.95;0.80;;;4.70;99.90;;;;;;4423097;32;20470;-72
2021/11/23 06:42:36;;;;;;;2.03;0.90;;;4.80;99.90;;;;;;4422010;32;20077;-70
2021/11/23 06:45:04;;;;;;;1.12;0.95;;;4.80;99.90;;;;;;4420212;32;20502;-71
2021/11/23 06:47:31;;;;;;;0.73;0.73;;;4.80;99.90;;;;;;4421387;32;20057;-72
2021/11/23 06:49:56;;;;;;;0.52;0.52;;;4.80;99.90;;;;;;4407737;32;20090;-71
2021/11/23 06:52:23;;;;;;;0.50;0.50;;;4.80;99.90;;;;;;4407909;32;20089;-71
2021/11/23 06:54:49;;;;;;;0.37;0.37;;;4.80;99.90;;;;;;4409712;32;20184;-71
2021/11/23 06:57:15;;;;;;;0.40;0.40;;;4.80;99.90;;;;;;4413967;32;20073;-72
2021/11/23 06:59:41;;;;;;;0.50;0.50;;;4.80;99.90;;;;;;4408919;32;20109;-72
2021/11/23 07:02:07;;;;;;;1.95;0.82;;;4.80;99.90;;;;;;4403633;32;20666;-71
2021/11/23 07:04:33;;;;;;;2.47;0.75;;;4.80;99.90;;;;;;4407362;32;20101;-71
2021/11/23 07:07:00;;;;;;;1.25;0.77;;;4.90;99.90;;;;;;4408218;32;20073;-71
2021/11/23 07:09:25;;;;;;;2.08;1.65;;;4.90;99.90;;;;;;4411331;32;20247;-70
2021/11/23 07:11:52;;;;;;;1.02;0.90;;;4.90;99.90;;;;;;4415002;32;20124;-70
2021/11/23 07:14:18;;;;;;;4.40;1.58;;;4.80;99.90;;;;;;4410909;32;20097;-71
2021/11/23 07:16:43;;;;;;;0.55;0.55;;;4.80;99.90;;;;;;4411709;32;20591;-71
2021/11/23 07:19:09;;;;;;;1.67;1.42;;;4.80;99.90;;;;;;4404553;32;20243;-71
2021/11/23 07:21:35;;;;;;;1.55;0.60;;;4.90;99.90;;;;;;4406223;32;20133;-71
2021/11/23 07:24:00;;;;;;;0.75;0.68;;;5.00;99.90;;;;;;4399120;32;20550;-71
2021/11/23 07:26:27;;;;;;;1.00;0.90;;;5.00;99.90;;;;;;4405074;32;20563;-71
2021/11/23 07:28:53;;;;;;;0.60;0.60;;;5.00;99.90;;;;;;4407835;32;20136;-71
2021/11/23 07:31:18;;;;;;;0.52;0.52;;;5.10;99.90;;;;;;4406997;32;20097;-71
2021/11/23 07:33:44;;;;;;;2.28;1.50;;;5.00;99.90;;;;;;4407514;32;20117;-74
2021/11/23 07:36:11;;;;;;;1.85;1.12;;;5.00;99.90;;;;;;4411606;32;20500;-72
2021/11/23 07:38:36;;;;;;;7.10;0.70;;;5.10;99.90;;;;;;4413181;32;20607;-71
2021/11/23 07:41:02;;;;;;;1.25;0.85;;;5.10;99.90;;;;;;4408462;32;20097;-73
2021/11/23 07:43:27;;;;;;;1.75;1.35;;;5.10;99.90;;;;;;4410137;32;20541;-73
2021/11/23 07:45:53;;;;;;;0.30;0.30;;;5.10;99.90;;;;;;4401580;32;20080;-70
2021/11/23 07:48:18;;;;;;;0.37;0.37;;;5.20;99.90;;;;;;4403485;32;20097;-70
2021/11/23 07:50:44;;;;;;;1.30;1.05;;;5.20;99.90;;;;;;4397234;32;20106;-72
2021/11/23 07:53:10;;;;;;;0.35;0.35;;;5.20;99.90;;;;;;4399435;32;21412;-71
2021/11/23 07:55:36;;;;;;;2.80;1.48;;;5.20;99.90;;;;;;4403672;32;20165;-72
2021/11/23 07:58:02;;;;;;;2.05;1.50;;;5.20;99.90;;;;;;4397785;32;20080;-70
2021/11/23 08:00:29;;;;;;;0.70;0.70;;;5.20;99.90;;;;;;4402106;32;20145;-69
2021/11/23 08:02:55;;;;;;;1.52;0.98;;;5.20;99.90;;;;;;4406160;32;20114;-70
2021/11/23 08:05:22;;;;;;;0.37;0.37;;;5.30;99.90;;;;;;4408942;32;20294;-69
2021/11/23 08:07:47;;;;;;;0.40;0.40;;;5.30;99.90;;;;;;4409555;32;20200;-71
2021/11/23 08:10:13;;;;;;;0.98;0.82;;;5.40;99.90;;;;;;4413095;32;20061;-70
2021/11/23 08:12:39;;;;;;;1.42;1.27;;;5.30;99.90;;;;;;4414338;32;20085;-70
2021/11/23 08:15:06;;;;;;;0.40;0.40;;;5.30;99.90;;;;;;4417383;32;20534;-70
2021/11/23 08:17:31;;;;;;;0.73;0.73;;;5.30;99.90;;;;;;4409549;32;20077;-69
2021/11/23 08:19:57;;;;;;;1.10;0.98;;;5.30;99.90;;;;;;4413158;32;20137;-69
2021/11/23 08:22:23;;;;;;;0.60;0.60;;;5.40;99.90;;;;;;4410945;32;20105;-70
2021/11/23 08:24:48;;;;;;;2.40;1.50;;;5.40;99.90;;;;;;4408973;32;20085;-69
2021/11/23 08:27:14;;;;;;;1.83;1.00;;;5.50;99.90;;;;;;4404593;32;20386;-68
2021/11/23 08:29:40;;;;;;;0.93;0.90;;;5.50;99.90;;;;;;4405127;32;20577;-67
2021/11/23 08:32:06;;;;;;;0.65;0.55;;;5.60;99.90;;;;;;4400297;32;20092;-67
2021/11/23 08:34:31;;;;;;;0.52;0.50;;;5.60;99.90;;;;;;4400474;32;20096;-66
2021/11/23 08:36:57;;;;;;;1.12;0.80;;;5.60;99.90;;;;;;4406314;32;20557;-68
2021/11/23 08:39:23;;;;;;;0.82;0.65;;;5.60;99.90;;;;;;4402348;32;20523;-67
2021/11/23 08:41:49;;;;;;;0.85;0.85;;;5.60;99.90;;;;;;4406186;32;20111;-67
2021/11/23 08:44:15;;;;;;;0.60;0.60;;;5.60;99.90;;;;;;4405930;32;20547;-68
2021/11/23 08:46:41;;;;;;;0.60;0.60;;;5.70;99.90;;;;;;4410776;32;21087;-68
2021/11/23 08:49:07;;;;;;;10.93;0.95;;;5.70;99.90;;;;;;4406569;32;20543;-69
2021/11/23 08:51:36;;;;;;;0.50;0.50;;;5.70;99.90;;;;;;4405895;32;20093;-70
2021/11/23 08:54:04;;;;;;;0.32;0.32;;;5.70;99.90;;;;;;4396618;32;20085;-68
2021/11/23 08:56:35;;;;;;;0.50;0.50;;;5.70;99.90;;;;;;4404565;32;20344;-67
2021/11/23 08:59:04;;;;;;;0.60;0.57;;;5.80;99.90;;;;;;4402001;32;20183;-68
2021/11/23 09:01:30;;;;;;;1.30;0.47;;;5.90;99.90;;;;;;4403865;32;20128;-67
2021/11/23 09:03:55;;;;;;;1.05;0.68;;;5.90;99.90;;;;;;4395649;32;20652;-69
2021/11/23 09:06:24;;;;;;;2.92;1.05;;;6.00;99.90;;;;;;4400596;32;20086;-68
2021/11/23 09:08:58;;;;;;;0.47;0.47;;;5.90;99.90;;;;;;4399935;32;20575;-69
2021/11/23 09:11:25;;;;;;;1.23;0.62;;;6.00;99.90;;;;;;4402017;32;20665;-69
2021/11/23 09:13:52;;;;;;;0.50;0.50;;;6.00;99.90;;;;;;4397624;32;20097;-68
2021/11/23 09:16:17;;;;;;;0.60;0.60;;;5.90;99.90;;;;;;4397616;32;20069;-69
2021/11/23 09:18:43;;;;;;;0.50;0.50;;;5.90;99.90;;;;;;4397815;32;21538;-70
2021/11/23 09:21:09;;;;;;;0.50;0.50;;;6.00;99.90;;;;;;4392983;32;21615;-69
2021/11/23 09:23:34;;;;;;;2.10;0.85;;;6.00;99.90;;;;;;4397633;32;20493;-69
2021/11/23 09:26:00;;;;;;;0.93;0.75;;;6.00;99.90;;;;;;4395813;32;20287;-68
2021/11/23 09:28:25;;;;;;;0.57;0.52;;;6.00;99.90;;;;;;4396655;32;20073;-68
2021/11/23 09:30:51;;;;;;;0.60;0.60;;;6.10;99.90;;;;;;4406121;32;20094;-68
2021/11/23 09:33:17;;;;;;;0.60;0.60;;;6.10;99.90;;;;;;4399839;32;20097;-68
2021/11/23 09:35:42;;;;;;;1.40;0.60;;;6.20;99.90;;;;;;4398271;32;20125;-68
2021/11/23 09:38:09;;;;;;;0.90;0.85;;;6.10;99.90;;;;;;4404349;32;20089;-69
2021/11/23 09:40:35;;;;;;;0.70;0.70;;;6.20;99.90;;;;;;4403034;32;20207;-68
2021/11/23 09:43:00;;;;;;;0.98;0.95;;;6.20;99.90;;;;;;4399293;32;20553;-69
2021/11/23 09:45:26;;;;;;;1.45;0.75;;;6.20;99.90;;;;;;4401925;32;20089;-69
2021/11/23 09:47:52;;;;;;;2.75;1.42;;;6.20;99.90;;;;;;4397849;32;20578;-68
2021/11/23 09:50:18;;;;;;;0.52;0.52;;;6.20;99.90;;;;;;4403499;32;20793;-68
2021/11/23 09:52:44;;;;;;;0.77;0.62;;;6.20;99.90;;;;;;4401849;32;20955;-68
2021/11/23 09:55:12;;;;;;;2.42;1.23;;;6.20;99.90;;;;;;4403461;32;20112;-69
2021/11/23 09:57:38;;;;;;;0.50;0.50;;;6.10;99.90;;;;;;4402233;32;20073;-68
2021/11/23 10:00:21;;;;;;;0.68;0.68;;;6.10;99.90;;;;;;4399405;32;20938;-68
2021/11/23 10:02:46;;;;;;;0.50;0.50;;;6.10;99.90;;;;;;4405942;32;20191;-68
2021/11/23 10:05:15;;;;;;;0.60;0.60;;;6.00;99.90;;;;;;4407821;32;20093;-69
2021/11/23 10:07:42;;;;;;;0.43;0.43;;;6.10;99.90;;;;;;4406705;32;20591;-69
2021/11/23 10:10:15;;;;;;;0.50;0.50;;;6.00;99.90;;;;;;4404298;32;20806;-70
2021/11/23 10:12:52;;;;;;;4.20;0.90;;;6.00;99.90;;;;;;4402888;32;20148;-69
2021/11/23 10:15:28;;;;;;;0.88;0.50;;;6.10;99.90;;;;;;4402837;32;20814;-70
2021/11/23 10:18:06;;;;;;;0.73;0.73;;;6.10;99.90;;;;;;4398866;32;20085;-68
2021/11/23 10:20:34;;;;;;;2.35;1.17;;;6.10;99.90;;;;;;4401262;32;20102;-70
2021/11/23 10:23:12;;;;;;;0.50;0.50;;;6.20;99.90;;;;;;4408800;32;20093;-69
2021/11/23 10:25:39;;;;;;;1.05;0.93;;;6.20;99.90;;;;;;4406893;32;20093;-70
2021/11/23 10:28:06;;;;;;;3.03;1.20;;;6.30;99.90;;;;;;4405482;32;20234;-69
2021/11/23 10:30:31;;;;;;;0.95;0.95;;;6.30;99.90;;;;;;4401525;32;20665;-69
2021/11/23 10:32:57;;;;;;;6.90;1.83;;;6.30;99.90;;;;;;4405500;32;20185;-69
2021/11/23 10:35:25;;;;;;;2.17;1.25;;;6.30;99.90;;;;;;4406900;32;20097;-69
2021/11/23 10:37:52;;;;;;;0.68;0.68;;;6.40;99.90;;;;;;4407848;32;20097;-69
2021/11/23 10:40:22;;;;;;;0.50;0.50;;;6.40;99.90;;;;;;4411485;32;20105;-68
2021/11/23 10:42:54;;;;;;;0.37;0.37;;;6.50;99.90;;;;;;4414795;32;20931;-69
2021/11/23 10:45:20;;;;;;;0.40;0.40;;;6.60;99.90;;;;;;4410992;32;20498;-69
2021/11/23 10:47:47;;;;;;;0.50;0.50;;;6.60;99.90;;;;;;4407774;32;20101;-69
2021/11/23 10:50:14;;;;;;;2.20;1.17;;;6.60;99.90;;;;;;4409429;32;20081;-69
2021/11/23 10:52:44;;;;;;;0.98;0.98;;;6.60;99.90;;;;;;4409733;32;20097;-70
2021/11/23 10:55:27;;;;;;;0.70;0.70;;;6.70;99.90;;;;;;4413782;32;20074;-70
2021/11/23 10:57:56;;;;;;;0.80;0.80;;;6.60;99.90;;;;;;4414023;32;20102;-70
2021/11/23 11:00:23;;;;;;;1.85;1.08;;;6.60;99.90;;;;;;4413772;32;20101;-70
2021/11/23 11:02:52;;;;;;;3.78;1.73;;;6.60;99.90;;;;;;4414187;32;20144;-70
2021/11/23 11:05:18;;;;;;;0.77;0.77;;;6.70;99.90;;;;;;4418222;32;20121;-70
2021/11/23 11:07:46;;;;;;;0.40;0.40;;;6.70;99.90;;;;;;4408345;32;20142;-70
2021/11/23 11:10:13;;;;;;;6.22;0.88;;;6.70;99.90;;;;;;4411938;32;20078;-70
2021/11/23 11:12:39;;;;;;;0.82;0.82;;;6.60;99.90;;;;;;4409801;32;20093;-70
2021/11/23 11:15:10;;;;;;;0.50;0.50;;;6.60;99.90;;;;;;4406096;32;20089;-70
2021/11/23 11:17:37;;;;;;;0.60;0.60;;;6.70;99.90;;;;;;4404567;32;20690;-69
2021/11/23 11:20:05;;;;;;;5.60;0.77;;;6.70;99.90;;;;;;4402979;32;20555;-69
2021/11/23 11:22:31;;;;;;;0.95;0.75;;;6.70;99.90;;;;;;4411136;32;20069;-70
2021/11/23 11:25:26;;;;;;;1.45;1.35;;;6.70;99.90;;;;;;4411892;32;20081;-69
2021/11/23 11:27:48;;;;;;;2.37;1.60;;;6.70;99.90;;;;;;4410662;32;20567;-71
2021/11/23 11:30:25;;;;;;;1.23;1.12;;;6.70;99.90;;;;;;4413684;32;20543;-71
2021/11/23 11:33:00;;;;;;;0.50;0.50;;;6.80;99.90;;;;;;4417590;32;20093;-71
2021/11/23 11:35:30;;;;;;;2.58;1.00;;;6.80;99.90;;;;;;4417721;32;20069;-70
2021/11/23 11:38:00;;;;;;;0.50;0.50;;;6.70;99.90;;;;;;4419356;32;20630;-67
2021/11/23 11:40:32;;;;;;;4.50;2.12;;;6.80;99.90;;;;;;4413778;32;20065;-71
2021/11/23 11:43:01;;;;;;;0.65;0.65;;;6.80;99.90;;;;;;4421188;32;20701;-68
2021/11/23 11:45:41;;;;;;;7.55;0.80;;;6.90;99.90;;;;;;4414863;32;20069;-70
2021/11/23 11:48:35;;;;;;;0.45;0.45;;;6.90;99.90;;;;;;4417263;32;20101;-70
2021/11/23 11:51:07;;;;;;;1.08;0.95;;;6.90;99.90;;;;;;4416197;32;20078;-71
2021/11/23 11:53:40;;;;;;;0.40;0.40;;;7.00;99.90;;;;;;4413459;32;20077;-71
2021/11/23 11:56:07;;;;;;;0.50;0.50;;;7.00;99.90;;;;;;4414900;32;20113;-71
2021/11/23 11:58:52;;;;;;;0.40;0.40;;;7.10;99.90;;;;;;4404790;32;20301;-71
2021/11/23 12:01:28;;;;;;;0.55;0.55;;;7.10;99.90;;;;;;4404021;32;20152;-68
2021/11/23 12:04:15;;;;;;;1.20;1.15;;;7.20;99.90;;;;;;4415003;32;20098;-73
2021/11/23 12:07:00;;;;;;;7.37;1.70;;;7.20;99.90;;;;;;4412068;32;20191;-73
2021/11/23 12:09:36;;;;;;;0.40;0.40;;;7.20;99.90;;;;;;4413893;32;20124;-73
2021/11/23 12:12:25;;;;;;;0.50;0.50;;;7.20;99.90;;;;;;4414920;32;20085;-72
2021/11/23 12:14:55;;;;;;;5.93;0.75;;;7.30;99.90;;;;;;4419406;32;20092;-73
2021/11/23 12:17:44;;;;;;;0.55;0.50;;;7.30;99.90;;;;;;4420944;32;20117;-73
2021/11/23 12:20:20;;;;;;;0.40;0.40;;;7.30;99.90;;;;;;4415493;32;20081;-72
2021/11/23 12:22:48;;;;;;;0.45;0.45;;;7.30;99.90;;;;;;4415541;32;20093;-72
2021/11/23 12:25:19;;;;;;;0.60;0.60;;;7.30;99.90;;;;;;4413730;32;20089;-73
2021/11/23 12:27:46;;;;;;;;;;;7.30;99.90;;;;;;4414492;32;20109;-74
2021/11/23 12:30:19;;;;;;;2.40;1.00;;;7.40;99.90;;;;;;4413255;32;20232;-73
2021/11/23 12:32:50;;;;;;;3.03;1.08;;;7.30;99.90;;;;;;4419356;32;20136;-75
2021/11/23 12:35:16;;;;;;;0.43;0.43;;;7.40;99.90;;;;;;4419949;32;20062;-75
2021/11/23 12:37:47;;;;;;;0.52;0.52;;;7.40;99.90;;;;;;4419063;32;20073;-74
2021/11/23 12:40:20;;;;;;;0.57;0.57;;;7.40;99.90;;;;;;4420873;32;20426;-73
2021/11/23 12:42:53;;;;;;;0.77;0.60;;;7.40;99.90;;;;;;4418476;32;20085;-75
2021/11/23 12:45:37;;;;;;;0.40;0.40;;;7.40;99.90;;;;;;4415179;32;20505;-74
2021/11/23 12:48:05;;;;;;;0.40;0.40;;;7.40;99.90;;;;;;4421475;32;20158;-73
2021/11/23 12:50:32;;;;;;;0.65;0.65;;;7.40;99.90;;;;;;4418476;32;20109;-74
2021/11/23 12:53:09;;;;;;;0.98;0.60;;;7.50;99.90;;;;;;4413736;32;20547;-73
2021/11/23 12:55:34;;;;;;;0.47;0.47;;;7.50;99.90;;;;;;4410475;32;20249;-73
2021/11/23 12:58:00;;;;;;;2.17;1.33;;;7.50;99.90;;;;;;4415898;32;20077;-73